Aérodrome :
LOGIN :

S'inscrire | Disclaimer

   EN    FR    IT 

 










Légende :    VFR   VFR Marginal   IFR   IFR Intensif   IFR Très Intensif
Visi : 
Plafond : 
>= 8 km
>= 3000ft
5 à 8 km
1000 à 3000 ft
1500m à 5 km
500 à 1000 ft
800 à 1500m
200 à 500 ft
< 800m
< 200 ft
Symboles :   Orages  Brouillard  Fortes neiges  Fortes précipitations  Vent > 20 kt
SIGMETs :   Divers  Orages  Givrage  Turbulence  Onde Orograph.  Cendres Volcan.






- Altitude de l'aérodrome : 390 ft
- Code IATA : TMP


EFTP - Tampere-Pirkkala

DERNIER METAR :
  • 200150Z AUTO 33006KT 290V350 9999 -SN BKN021 M00/M02 Q1013

METARs EXPIRÉS :
  • 200120Z AUTO 33009KT 300V030 9999 -RA BKN018 00/M03 Q1012
  • 200050Z AUTO 34007KT 9999 OVC018 00/M02 Q1012
  • 200020Z AUTO 33007KT 9999 -SHSN BKN020 00/M02 Q1012
  • 192350Z AUTO 33007KT 280V010 9999 BKN009 00/M02 Q1011
  • 192320Z AUTO 33008KT 9999 BKN019 00/M01 Q1011

TAF TAF EFTP
Valide du 20 à 00h jusqu'au 21 à 00h UTC


192325Z 2000/2024 33008KT 9999 BKN015
TEMPO 2000/2008 5000 -RASN BKN008



MET'MAP, la Météo Aéronautique d'un coup d'oeil ! - Copyright ORBIFLY Décembre 2007 - Disclaimer

ORBIFLY MET'MAP TEAM :

Programmation & Développement : Alexandra Zaïnal
Sur une idée originale de : Baudouin d'Aumeries
Assistance à la programmation : Marc-Olivier Méhu
Soutien technique & logistique : Manuel Goepfert

Contact : metmap@orbifly.com




SOURCES & CREDITS :

   NOAA